Pays
Station

 

Conditions  météo  pour  Pescara  -  Italie    Italie

  
18 °C
    
 
 

METAR pour Pescara :

LIBP 230350Z AUTO 20005KT 7000 NCD 18/17 Q1018

 

Voici le bulletin pour Pescara - Italie.
 
Le bulletin a été fait il y a 55 minutes, à 03:50 UTC .
Le vent soufflait à la vitesse de 2.6 mètres par seconde de Sud/Sud-ouest (200°).
 
La température était de 18 °C, avec un point de rosée à 17 °C.
La pression atmosphérique était de 1018 hPa.
L'humidité relative était de 93.9%.
 
La visibilité globale était de 7.0 kilomètres.
 

 
 
 

Pays :   A   B   C   D   E   F   G   H   I   J   K   L   M   N   O   P   Q   R   S   T   U   V   W   Y   Z

 

Partenaires :  Info Météo avec Met'info
Météo Marine avec MeteoMarine.net
Infos Site  |  Infos Légales  |  Crédits  |  Confidentialité
Contactez-nous  |  Ajouter aux favoris
© 2013-2018 METAR - Tous droits réservés